sensor_id;sensor_type;location;lat;lon;timestamp;P1;durP1;ratioP1;P2;durP2;ratioP2
43088;SDS011;28709;52.030;5.652;2023-11-19T00:02:08;9.02;;;4.00;;
43088;SDS011;28709;52.030;5.652;2023-11-19T00:04:37;9.32;;;3.83;;
43088;SDS011;28709;52.030;5.652;2023-11-19T00:07:06;13.85;;;4.53;;
43088;SDS011;28709;52.030;5.652;2023-11-19T00:09:35;11.65;;;4.22;;
43088;SDS011;28709;52.030;5.652;2023-11-19T00:12:03;10.63;;;3.88;;
43088;SDS011;28709;52.030;5.652;2023-11-19T00:14:29;11.75;;;3.83;;
43088;SDS011;28709;52.030;5.652;2023-11-19T00:16:55;12.25;;;3.63;;
43088;SDS011;28709;52.030;5.652;2023-11-19T00:19:21;12.13;;;3.90;;
43088;SDS011;28709;52.030;5.652;2023-11-19T00:21:46;14.88;;;4.45;;
43088;SDS011;28709;52.030;5.652;2023-11-19T00:24:12;16.20;;;4.20;;
43088;SDS011;28709;52.030;5.652;2023-11-19T00:26:41;18.20;;;4.20;;
43088;SDS011;28709;52.030;5.652;2023-11-19T00:29:07;22.60;;;3.83;;
43088;SDS011;28709;52.030;5.652;2023-11-19T00:31:32;14.85;;;3.70;;
43088;SDS011;28709;52.030;5.652;2023-11-19T00:33:58;20.55;;;4.38;;
43088;SDS011;28709;52.030;5.652;2023-11-19T00:36:24;16.92;;;3.65;;
43088;SDS011;28709;52.030;5.652;2023-11-19T00:38:50;22.88;;;4.70;;
43088;SDS011;28709;52.030;5.652;2023-11-19T00:41:17;16.33;;;3.75;;
43088;SDS011;28709;52.030;5.652;2023-11-19T00:43:43;22.30;;;3.88;;
43088;SDS011;28709;52.030;5.652;2023-11-19T00:46:09;15.32;;;3.65;;
43088;SDS011;28709;52.030;5.652;2023-11-19T00:48:36;22.60;;;4.72;;
43088;SDS011;28709;52.030;5.652;2023-11-19T00:51:02;20.33;;;3.63;;
43088;SDS011;28709;52.030;5.652;2023-11-19T00:53:29;17.52;;;4.38;;
43088;SDS011;28709;52.030;5.652;2023-11-19T00:55:55;13.70;;;3.47;;
43088;SDS011;28709;52.030;5.652;2023-11-19T00:58:20;17.55;;;3.35;;
43088;SDS011;28709;52.030;5.652;2023-11-19T01:00:46;20.33;;;4.38;;
43088;SDS011;28709;52.030;5.652;2023-11-19T01:03:12;21.48;;;4.28;;
43088;SDS011;28709;52.030;5.652;2023-11-19T01:05:39;12.57;;;3.28;;
43088;SDS011;28709;52.030;5.652;2023-11-19T01:08:05;22.15;;;4.03;;
43088;SDS011;28709;52.030;5.652;2023-11-19T01:10:31;18.70;;;3.50;;
43088;SDS011;28709;52.030;5.652;2023-11-19T01:12:57;15.85;;;3.80;;
43088;SDS011;28709;52.030;5.652;2023-11-19T01:15:22;22.30;;;3.47;;
43088;SDS011;28709;52.030;5.652;2023-11-19T01:17:48;27.35;;;4.85;;
43088;SDS011;28709;52.030;5.652;2023-11-19T01:20:14;17.23;;;3.83;;
43088;SDS011;28709;52.030;5.652;2023-11-19T01:22:40;20.90;;;4.55;;
43088;SDS011;28709;52.030;5.652;2023-11-19T01:25:06;19.45;;;4.38;;
43088;SDS011;28709;52.030;5.652;2023-11-19T01:27:32;23.67;;;4.03;;
43088;SDS011;28709;52.030;5.652;2023-11-19T01:29:59;15.73;;;3.72;;
43088;SDS011;28709;52.030;5.652;2023-11-19T01:32:30;25.95;;;4.43;;
43088;SDS011;28709;52.030;5.652;2023-11-19T01:34:56;22.63;;;3.90;;
43088;SDS011;28709;52.030;5.652;2023-11-19T01:37:22;25.27;;;3.97;;
43088;SDS011;28709;52.030;5.652;2023-11-19T01:39:48;29.38;;;4.70;;
43088;SDS011;28709;52.030;5.652;2023-11-19T01:42:13;27.35;;;3.83;;
43088;SDS011;28709;52.030;5.652;2023-11-19T01:44:40;25.63;;;3.92;;
43088;SDS011;28709;52.030;5.652;2023-11-19T01:47:06;29.88;;;4.63;;
43088;SDS011;28709;52.030;5.652;2023-11-19T01:49:33;32.13;;;4.85;;
43088;SDS011;28709;52.030;5.652;2023-11-19T01:51:59;32.35;;;4.47;;
43088;SDS011;28709;52.030;5.652;2023-11-19T01:54:25;25.25;;;3.47;;
43088;SDS011;28709;52.030;5.652;2023-11-19T01:56:53;26.08;;;3.95;;
43088;SDS011;28709;52.030;5.652;2023-11-19T01:59:21;24.85;;;3.97;;
43088;SDS011;28709;52.030;5.652;2023-11-19T02:01:51;25.17;;;4.18;;
43088;SDS011;28709;52.030;5.652;2023-11-19T02:04:19;24.25;;;3.78;;
43088;SDS011;28709;52.030;5.652;2023-11-19T02:06:47;31.00;;;4.38;;
43088;SDS011;28709;52.030;5.652;2023-11-19T02:09:14;27.27;;;4.45;;
43088;SDS011;28709;52.030;5.652;2023-11-19T02:11:44;19.38;;;3.35;;
43088;SDS011;28709;52.030;5.652;2023-11-19T02:14:13;31.95;;;4.65;;
43088;SDS011;28709;52.030;5.652;2023-11-19T02:16:39;20.52;;;3.80;;
43088;SDS011;28709;52.030;5.652;2023-11-19T02:19:04;29.35;;;4.50;;
43088;SDS011;28709;52.030;5.652;2023-11-19T02:21:31;27.90;;;5.13;;
43088;SDS011;28709;52.030;5.652;2023-11-19T02:23:57;25.40;;;5.50;;
43088;SDS011;28709;52.030;5.652;2023-11-19T02:26:28;26.88;;;4.25;;
43088;SDS011;28709;52.030;5.652;2023-11-19T02:28:58;25.25;;;4.32;;
43088;SDS011;28709;52.030;5.652;2023-11-19T02:31:24;23.42;;;4.18;;
43088;SDS011;28709;52.030;5.652;2023-11-19T02:33:52;26.90;;;4.30;;
43088;SDS011;28709;52.030;5.652;2023-11-19T02:36:18;26.55;;;4.85;;
43088;SDS011;28709;52.030;5.652;2023-11-19T02:38:43;22.13;;;4.43;;
43088;SDS011;28709;52.030;5.652;2023-11-19T02:41:09;34.35;;;4.53;;
43088;SDS011;28709;52.030;5.652;2023-11-19T02:43:35;36.72;;;5.32;;
43088;SDS011;28709;52.030;5.652;2023-11-19T02:46:02;24.17;;;4.35;;
43088;SDS011;28709;52.030;5.652;2023-11-19T02:48:32;29.42;;;5.03;;
43088;SDS011;28709;52.030;5.652;2023-11-19T02:51:00;36.17;;;6.95;;
43088;SDS011;28709;52.030;5.652;2023-11-19T02:53:28;38.45;;;6.32;;
43088;SDS011;28709;52.030;5.652;2023-11-19T02:55:54;43.28;;;6.70;;
43088;SDS011;28709;52.030;5.652;2023-11-19T02:58:26;33.22;;;5.75;;
43088;SDS011;28709;52.030;5.652;2023-11-19T03:00:53;34.42;;;5.38;;
43088;SDS011;28709;52.030;5.652;2023-11-19T03:03:23;39.63;;;6.55;;
43088;SDS011;28709;52.030;5.652;2023-11-19T03:05:55;38.47;;;5.35;;
43088;SDS011;28709;52.030;5.652;2023-11-19T03:08:21;40.83;;;6.18;;
43088;SDS011;28709;52.030;5.652;2023-11-19T03:10:47;39.25;;;6.65;;
43088;SDS011;28709;52.030;5.652;2023-11-19T03:13:13;35.65;;;5.50;;
43088;SDS011;28709;52.030;5.652;2023-11-19T03:15:39;43.20;;;7.03;;
43088;SDS011;28709;52.030;5.652;2023-11-19T03:18:05;44.65;;;6.00;;
43088;SDS011;28709;52.030;5.652;2023-11-19T03:20:31;31.60;;;6.40;;
43088;SDS011;28709;52.030;5.652;2023-11-19T03:22:57;43.70;;;7.45;;
43088;SDS011;28709;52.030;5.652;2023-11-19T03:25:24;39.00;;;5.38;;
43088;SDS011;28709;52.030;5.652;2023-11-19T03:27:52;40.83;;;5.88;;
43088;SDS011;28709;52.030;5.652;2023-11-19T03:30:18;35.22;;;5.82;;
43088;SDS011;28709;52.030;5.652;2023-11-19T03:32:46;31.83;;;5.40;;
43088;SDS011;28709;52.030;5.652;2023-11-19T03:35:11;39.42;;;6.50;;
43088;SDS011;28709;52.030;5.652;2023-11-19T03:37:37;44.75;;;7.53;;
43088;SDS011;28709;52.030;5.652;2023-11-19T03:40:04;30.58;;;5.97;;
43088;SDS011;28709;52.030;5.652;2023-11-19T03:42:31;40.30;;;5.63;;
43088;SDS011;28709;52.030;5.652;2023-11-19T03:44:56;31.75;;;4.75;;
43088;SDS011;28709;52.030;5.652;2023-11-19T03:47:24;48.20;;;6.85;;
43088;SDS011;28709;52.030;5.652;2023-11-19T03:49:49;36.60;;;5.82;;
43088;SDS011;28709;52.030;5.652;2023-11-19T03:52:16;31.08;;;5.22;;
43088;SDS011;28709;52.030;5.652;2023-11-19T03:54:42;31.63;;;5.53;;
43088;SDS011;28709;52.030;5.652;2023-11-19T03:57:08;39.08;;;6.18;;
43088;SDS011;28709;52.030;5.652;2023-11-19T03:59:35;33.10;;;5.65;;
43088;SDS011;28709;52.030;5.652;2023-11-19T04:02:01;36.17;;;5.95;;
43088;SDS011;28709;52.030;5.652;2023-11-19T04:04:28;36.20;;;6.13;;
43088;SDS011;28709;52.030;5.652;2023-11-19T04:06:56;36.72;;;7.03;;
43088;SDS011;28709;52.030;5.652;2023-11-19T04:09:23;47.55;;;6.03;;
43088;SDS011;28709;52.030;5.652;2023-11-19T04:11:49;30.00;;;4.63;;
43088;SDS011;28709;52.030;5.652;2023-11-19T04:14:14;39.63;;;5.75;;
43088;SDS011;28709;52.030;5.652;2023-11-19T04:16:43;39.03;;;5.20;;
43088;SDS011;28709;52.030;5.652;2023-11-19T04:19:09;42.53;;;6.28;;
43088;SDS011;28709;52.030;5.652;2023-11-19T04:21:35;39.72;;;7.40;;
43088;SDS011;28709;52.030;5.652;2023-11-19T04:24:01;51.63;;;8.73;;
43088;SDS011;28709;52.030;5.652;2023-11-19T04:26:27;42.67;;;6.78;;
43088;SDS011;28709;52.030;5.652;2023-11-19T04:28:52;45.70;;;5.63;;
43088;SDS011;28709;52.030;5.652;2023-11-19T04:31:18;47.05;;;6.25;;
43088;SDS011;28709;52.030;5.652;2023-11-19T04:33:43;41.17;;;6.53;;
43088;SDS011;28709;52.030;5.652;2023-11-19T04:36:09;48.67;;;8.05;;
43088;SDS011;28709;52.030;5.652;2023-11-19T04:38:35;41.85;;;6.50;;
43088;SDS011;28709;52.030;5.652;2023-11-19T04:41:03;52.55;;;7.18;;
43088;SDS011;28709;52.030;5.652;2023-11-19T04:43:30;45.10;;;6.15;;
43088;SDS011;28709;52.030;5.652;2023-11-19T04:45:56;44.70;;;6.57;;
43088;SDS011;28709;52.030;5.652;2023-11-19T04:48:22;51.00;;;6.95;;
43088;SDS011;28709;52.030;5.652;2023-11-19T04:50:48;47.72;;;7.97;;
43088;SDS011;28709;52.030;5.652;2023-11-19T04:53:15;41.58;;;6.35;;
43088;SDS011;28709;52.030;5.652;2023-11-19T04:55:41;41.55;;;6.57;;
43088;SDS011;28709;52.030;5.652;2023-11-19T04:58:06;42.05;;;7.35;;
43088;SDS011;28709;52.030;5.652;2023-11-19T05:00:32;44.90;;;7.07;;
43088;SDS011;28709;52.030;5.652;2023-11-19T05:02:58;42.28;;;6.30;;
43088;SDS011;28709;52.030;5.652;2023-11-19T05:05:23;38.60;;;7.20;;
43088;SDS011;28709;52.030;5.652;2023-11-19T05:07:49;58.08;;;8.25;;
43088;SDS011;28709;52.030;5.652;2023-11-19T05:10:14;53.42;;;8.57;;
43088;SDS011;28709;52.030;5.652;2023-11-19T05:12:40;44.60;;;6.28;;
43088;SDS011;28709;52.030;5.652;2023-11-19T05:15:06;47.65;;;6.95;;
43088;SDS011;28709;52.030;5.652;2023-11-19T05:17:32;38.72;;;6.20;;
43088;SDS011;28709;52.030;5.652;2023-11-19T05:19:58;35.90;;;6.03;;
43088;SDS011;28709;52.030;5.652;2023-11-19T05:22:24;44.33;;;7.05;;
43088;SDS011;28709;52.030;5.652;2023-11-19T05:24:50;40.42;;;5.97;;
43088;SDS011;28709;52.030;5.652;2023-11-19T05:27:16;50.55;;;7.03;;
43088;SDS011;28709;52.030;5.652;2023-11-19T05:29:42;38.90;;;6.75;;
43088;SDS011;28709;52.030;5.652;2023-11-19T05:32:09;61.60;;;10.50;;
43088;SDS011;28709;52.030;5.652;2023-11-19T05:34:35;34.80;;;5.55;;
43088;SDS011;28709;52.030;5.652;2023-11-19T05:37:00;43.95;;;6.80;;
43088;SDS011;28709;52.030;5.652;2023-11-19T05:39:27;46.42;;;5.97;;
43088;SDS011;28709;52.030;5.652;2023-11-19T05:41:53;50.65;;;6.63;;
43088;SDS011;28709;52.030;5.652;2023-11-19T05:44:19;41.20;;;6.22;;
43088;SDS011;28709;52.030;5.652;2023-11-19T05:46:44;42.13;;;6.43;;
43088;SDS011;28709;52.030;5.652;2023-11-19T05:49:11;39.72;;;6.70;;
43088;SDS011;28709;52.030;5.652;2023-11-19T05:51:39;46.17;;;6.43;;
43088;SDS011;28709;52.030;5.652;2023-11-19T05:54:08;43.85;;;6.57;;
43088;SDS011;28709;52.030;5.652;2023-11-19T05:56:35;36.13;;;5.82;;
43088;SDS011;28709;52.030;5.652;2023-11-19T05:59:01;37.22;;;6.35;;
43088;SDS011;28709;52.030;5.652;2023-11-19T06:01:31;41.35;;;6.03;;
43088;SDS011;28709;52.030;5.652;2023-11-19T06:03:59;39.55;;;7.22;;
43088;SDS011;28709;52.030;5.652;2023-11-19T06:06:26;34.42;;;6.22;;
43088;SDS011;28709;52.030;5.652;2023-11-19T06:08:51;49.00;;;7.60;;
43088;SDS011;28709;52.030;5.652;2023-11-19T06:11:17;40.22;;;6.05;;
43088;SDS011;28709;52.030;5.652;2023-11-19T06:13:45;34.75;;;6.28;;
43088;SDS011;28709;52.030;5.652;2023-11-19T06:16:11;34.90;;;6.07;;
43088;SDS011;28709;52.030;5.652;2023-11-19T06:18:37;44.35;;;7.18;;
43088;SDS011;28709;52.030;5.652;2023-11-19T06:21:03;41.85;;;6.68;;
43088;SDS011;28709;52.030;5.652;2023-11-19T06:23:28;40.08;;;6.47;;
43088;SDS011;28709;52.030;5.652;2023-11-19T06:25:54;54.80;;;6.82;;
43088;SDS011;28709;52.030;5.652;2023-11-19T06:28:20;48.03;;;7.68;;
43088;SDS011;28709;52.030;5.652;2023-11-19T06:30:45;55.78;;;9.30;;
43088;SDS011;28709;52.030;5.652;2023-11-19T06:33:14;39.78;;;7.18;;
43088;SDS011;28709;52.030;5.652;2023-11-19T06:35:40;48.75;;;7.80;;
43088;SDS011;28709;52.030;5.652;2023-11-19T06:38:05;48.85;;;7.80;;
43088;SDS011;28709;52.030;5.652;2023-11-19T06:40:31;45.50;;;6.63;;
43088;SDS011;28709;52.030;5.652;2023-11-19T06:42:58;39.53;;;5.88;;
43088;SDS011;28709;52.030;5.652;2023-11-19T06:45:24;44.10;;;6.60;;
43088;SDS011;28709;52.030;5.652;2023-11-19T06:47:50;39.42;;;6.78;;
43088;SDS011;28709;52.030;5.652;2023-11-19T06:50:16;36.90;;;6.38;;
43088;SDS011;28709;52.030;5.652;2023-11-19T06:52:42;33.83;;;6.13;;
43088;SDS011;28709;52.030;5.652;2023-11-19T06:55:08;54.47;;;7.15;;
43088;SDS011;28709;52.030;5.652;2023-11-19T06:57:34;53.50;;;7.72;;
43088;SDS011;28709;52.030;5.652;2023-11-19T06:59:59;42.33;;;6.57;;
43088;SDS011;28709;52.030;5.652;2023-11-19T07:02:25;35.80;;;6.65;;
43088;SDS011;28709;52.030;5.652;2023-11-19T07:04:51;39.97;;;6.47;;
43088;SDS011;28709;52.030;5.652;2023-11-19T07:07:17;45.05;;;6.95;;
43088;SDS011;28709;52.030;5.652;2023-11-19T07:09:42;44.97;;;7.18;;
43088;SDS011;28709;52.030;5.652;2023-11-19T07:12:08;39.75;;;6.72;;
43088;SDS011;28709;52.030;5.652;2023-11-19T07:14:34;44.00;;;6.18;;
43088;SDS011;28709;52.030;5.652;2023-11-19T07:17:00;50.42;;;7.28;;
43088;SDS011;28709;52.030;5.652;2023-11-19T07:19:25;36.28;;;6.22;;
43088;SDS011;28709;52.030;5.652;2023-11-19T07:21:51;28.35;;;5.53;;
43088;SDS011;28709;52.030;5.652;2023-11-19T07:24:19;47.67;;;7.50;;
43088;SDS011;28709;52.030;5.652;2023-11-19T07:26:46;32.95;;;5.93;;
43088;SDS011;28709;52.030;5.652;2023-11-19T07:29:13;45.30;;;8.05;;
43088;SDS011;28709;52.030;5.652;2023-11-19T07:31:40;44.63;;;6.57;;
43088;SDS011;28709;52.030;5.652;2023-11-19T07:34:05;51.13;;;7.28;;
43088;SDS011;28709;52.030;5.652;2023-11-19T07:36:31;47.50;;;7.13;;
43088;SDS011;28709;52.030;5.652;2023-11-19T07:38:57;42.08;;;5.93;;
43088;SDS011;28709;52.030;5.652;2023-11-19T07:41:23;41.40;;;6.07;;
43088;SDS011;28709;52.030;5.652;2023-11-19T07:43:50;40.65;;;6.45;;
43088;SDS011;28709;52.030;5.652;2023-11-19T07:46:17;39.22;;;5.75;;
43088;SDS011;28709;52.030;5.652;2023-11-19T07:48:46;38.20;;;6.68;;
43088;SDS011;28709;52.030;5.652;2023-11-19T07:51:12;41.97;;;6.47;;
43088;SDS011;28709;52.030;5.652;2023-11-19T07:53:39;45.78;;;7.07;;
43088;SDS011;28709;52.030;5.652;2023-11-19T07:56:05;43.50;;;7.28;;
43088;SDS011;28709;52.030;5.652;2023-11-19T07:58:32;44.47;;;6.80;;
43088;SDS011;28709;52.030;5.652;2023-11-19T08:00:57;43.47;;;6.03;;
43088;SDS011;28709;52.030;5.652;2023-11-19T08:03:23;51.88;;;7.80;;
43088;SDS011;28709;52.030;5.652;2023-11-19T08:05:49;61.42;;;16.60;;
43088;SDS011;28709;52.030;5.652;2023-11-19T08:08:15;55.22;;;9.20;;
43088;SDS011;28709;52.030;5.652;2023-11-19T08:10:40;36.63;;;6.80;;
43088;SDS011;28709;52.030;5.652;2023-11-19T08:13:06;45.70;;;7.63;;
43088;SDS011;28709;52.030;5.652;2023-11-19T08:15:35;36.50;;;7.28;;
43088;SDS011;28709;52.030;5.652;2023-11-19T08:18:00;52.80;;;8.20;;
43088;SDS011;28709;52.030;5.652;2023-11-19T08:20:27;51.40;;;10.07;;
43088;SDS011;28709;52.030;5.652;2023-11-19T08:22:52;46.33;;;8.10;;
43088;SDS011;28709;52.030;5.652;2023-11-19T08:25:18;44.38;;;8.38;;
43088;SDS011;28709;52.030;5.652;2023-11-19T08:27:43;51.88;;;10.07;;
43088;SDS011;28709;52.030;5.652;2023-11-19T08:30:09;46.47;;;7.90;;
43088;SDS011;28709;52.030;5.652;2023-11-19T08:32:35;44.15;;;7.05;;
43088;SDS011;28709;52.030;5.652;2023-11-19T08:35:01;39.20;;;6.95;;
43088;SDS011;28709;52.030;5.652;2023-11-19T08:37:27;46.65;;;7.00;;
43088;SDS011;28709;52.030;5.652;2023-11-19T08:39:53;48.90;;;7.68;;
43088;SDS011;28709;52.030;5.652;2023-11-19T08:42:18;45.15;;;7.70;;
43088;SDS011;28709;52.030;5.652;2023-11-19T08:44:48;37.08;;;6.43;;
43088;SDS011;28709;52.030;5.652;2023-11-19T08:47:15;31.52;;;5.82;;
43088;SDS011;28709;52.030;5.652;2023-11-19T08:49:43;45.83;;;7.75;;
43088;SDS011;28709;52.030;5.652;2023-11-19T08:52:09;51.65;;;7.63;;
43088;SDS011;28709;52.030;5.652;2023-11-19T08:54:35;28.95;;;5.22;;
43088;SDS011;28709;52.030;5.652;2023-11-19T08:57:01;34.85;;;5.70;;
43088;SDS011;28709;52.030;5.652;2023-11-19T08:59:28;47.58;;;6.43;;
43088;SDS011;28709;52.030;5.652;2023-11-19T09:01:54;35.28;;;6.10;;
43088;SDS011;28709;52.030;5.652;2023-11-19T09:04:19;42.05;;;6.93;;
43088;SDS011;28709;52.030;5.652;2023-11-19T09:06:47;42.97;;;6.45;;
43088;SDS011;28709;52.030;5.652;2023-11-19T09:09:13;42.53;;;7.20;;
43088;SDS011;28709;52.030;5.652;2023-11-19T09:11:39;30.73;;;6.05;;
43088;SDS011;28709;52.030;5.652;2023-11-19T09:14:05;40.45;;;5.82;;
43088;SDS011;28709;52.030;5.652;2023-11-19T09:16:31;45.92;;;7.18;;
43088;SDS011;28709;52.030;5.652;2023-11-19T09:18:57;36.13;;;6.53;;
43088;SDS011;28709;52.030;5.652;2023-11-19T09:21:24;39.03;;;7.22;;
43088;SDS011;28709;52.030;5.652;2023-11-19T09:23:54;37.42;;;6.75;;
43088;SDS011;28709;52.030;5.652;2023-11-19T09:26:20;36.30;;;5.75;;
43088;SDS011;28709;52.030;5.652;2023-11-19T09:28:46;39.60;;;5.63;;
43088;SDS011;28709;52.030;5.652;2023-11-19T09:31:14;46.50;;;6.88;;
43088;SDS011;28709;52.030;5.652;2023-11-19T09:33:41;48.03;;;7.03;;
43088;SDS011;28709;52.030;5.652;2023-11-19T09:36:06;27.40;;;5.22;;
43088;SDS011;28709;52.030;5.652;2023-11-19T09:38:32;47.08;;;6.15;;
43088;SDS011;28709;52.030;5.652;2023-11-19T09:40:58;39.08;;;7.13;;
43088;SDS011;28709;52.030;5.652;2023-11-19T09:43:26;41.08;;;6.60;;
43088;SDS011;28709;52.030;5.652;2023-11-19T09:45:56;31.10;;;6.03;;
43088;SDS011;28709;52.030;5.652;2023-11-19T09:48:22;40.25;;;6.50;;
43088;SDS011;28709;52.030;5.652;2023-11-19T09:50:50;41.72;;;6.43;;
43088;SDS011;28709;52.030;5.652;2023-11-19T09:53:17;35.25;;;6.78;;
43088;SDS011;28709;52.030;5.652;2023-11-19T09:55:45;38.50;;;6.70;;
43088;SDS011;28709;52.030;5.652;2023-11-19T09:58:11;41.72;;;6.22;;
43088;SDS011;28709;52.030;5.652;2023-11-19T10:00:39;32.75;;;5.35;;
43088;SDS011;28709;52.030;5.652;2023-11-19T10:03:05;39.75;;;7.13;;
43088;SDS011;28709;52.030;5.652;2023-11-19T10:05:32;42.92;;;5.93;;
43088;SDS011;28709;52.030;5.652;2023-11-19T10:07:58;36.20;;;6.45;;
43088;SDS011;28709;52.030;5.652;2023-11-19T10:10:24;34.47;;;6.32;;
43088;SDS011;28709;52.030;5.652;2023-11-19T10:12:52;34.30;;;5.95;;
43088;SDS011;28709;52.030;5.652;2023-11-19T10:15:20;41.13;;;7.28;;
43088;SDS011;28709;52.030;5.652;2023-11-19T10:17:48;45.30;;;7.82;;
43088;SDS011;28709;52.030;5.652;2023-11-19T10:20:13;42.58;;;7.47;;
43088;SDS011;28709;52.030;5.652;2023-11-19T10:22:39;39.30;;;7.22;;
43088;SDS011;28709;52.030;5.652;2023-11-19T10:25:05;40.22;;;6.88;;
43088;SDS011;28709;52.030;5.652;2023-11-19T10:27:50;41.47;;;6.55;;
43088;SDS011;28709;52.030;5.652;2023-11-19T10:30:18;41.15;;;7.05;;
43088;SDS011;28709;52.030;5.652;2023-11-19T10:33:02;29.85;;;6.10;;
43088;SDS011;28709;52.030;5.652;2023-11-19T10:35:34;31.50;;;6.03;;
43088;SDS011;28709;52.030;5.652;2023-11-19T10:38:18;29.85;;;6.15;;
43088;SDS011;28709;52.030;5.652;2023-11-19T10:40:43;26.52;;;5.32;;
43088;SDS011;28709;52.030;5.652;2023-11-19T10:43:09;27.15;;;5.13;;
43088;SDS011;28709;52.030;5.652;2023-11-19T10:45:36;29.88;;;6.03;;
43088;SDS011;28709;52.030;5.652;2023-11-19T10:48:02;37.10;;;6.60;;
43088;SDS011;28709;52.030;5.652;2023-11-19T10:50:38;31.95;;;6.00;;
43088;SDS011;28709;52.030;5.652;2023-11-19T10:53:06;33.63;;;5.95;;
43088;SDS011;28709;52.030;5.652;2023-11-19T10:55:34;26.30;;;5.15;;
43088;SDS011;28709;52.030;5.652;2023-11-19T10:58:04;32.10;;;5.82;;
43088;SDS011;28709;52.030;5.652;2023-11-19T11:03:16;26.15;;;5.45;;
43088;SDS011;28709;52.030;5.652;2023-11-19T11:05:48;30.73;;;6.03;;
43088;SDS011;28709;52.030;5.652;2023-11-19T11:08:15;35.33;;;6.70;;
43088;SDS011;28709;52.030;5.652;2023-11-19T11:10:45;29.17;;;6.25;;
43088;SDS011;28709;52.030;5.652;2023-11-19T11:13:17;24.15;;;5.15;;
43088;SDS011;28709;52.030;5.652;2023-11-19T11:15:43;29.40;;;6.05;;
43088;SDS011;28709;52.030;5.652;2023-11-19T11:18:11;37.17;;;6.65;;
43088;SDS011;28709;52.030;5.652;2023-11-19T11:20:38;28.05;;;6.03;;
43088;SDS011;28709;52.030;5.652;2023-11-19T11:25:42;35.20;;;5.95;;
43088;SDS011;28709;52.030;5.652;2023-11-19T11:39:13;34.47;;;5.88;;
43088;SDS011;28709;52.030;5.652;2023-11-19T11:41:40;31.95;;;5.40;;
43088;SDS011;28709;52.030;5.652;2023-11-19T11:44:06;35.60;;;5.10;;
43088;SDS011;28709;52.030;5.652;2023-11-19T11:49:03;34.88;;;6.95;;
43088;SDS011;28709;52.030;5.652;2023-11-19T11:54:08;32.45;;;6.38;;
43088;SDS011;28709;52.030;5.652;2023-11-19T11:56:37;36.08;;;6.60;;
43088;SDS011;28709;52.030;5.652;2023-11-19T12:02:07;32.80;;;6.15;;
43088;SDS011;28709;52.030;5.652;2023-11-19T12:04:34;42.72;;;6.63;;
43088;SDS011;28709;52.030;5.652;2023-11-19T12:07:04;39.85;;;7.93;;
43088;SDS011;28709;52.030;5.652;2023-11-19T12:09:31;32.75;;;8.65;;
43088;SDS011;28709;52.030;5.652;2023-11-19T12:20:02;24.80;;;4.45;;
43088;SDS011;28709;52.030;5.652;2023-11-19T12:22:31;28.42;;;5.07;;
43088;SDS011;28709;52.030;5.652;2023-11-19T12:24:57;26.45;;;4.57;;
43088;SDS011;28709;52.030;5.652;2023-11-19T12:27:23;22.90;;;4.18;;
43088;SDS011;28709;52.030;5.652;2023-11-19T12:29:49;30.13;;;4.68;;
43088;SDS011;28709;52.030;5.652;2023-11-19T12:32:15;25.65;;;5.10;;
43088;SDS011;28709;52.030;5.652;2023-11-19T12:34:41;24.35;;;4.13;;
43088;SDS011;28709;52.030;5.652;2023-11-19T12:37:07;26.83;;;4.35;;
43088;SDS011;28709;52.030;5.652;2023-11-19T12:39:35;30.52;;;5.75;;
43088;SDS011;28709;52.030;5.652;2023-11-19T12:42:01;38.47;;;5.70;;
43088;SDS011;28709;52.030;5.652;2023-11-19T12:44:27;27.58;;;4.70;;
43088;SDS011;28709;52.030;5.652;2023-11-19T12:47:06;28.45;;;5.13;;
43088;SDS011;28709;52.030;5.652;2023-11-19T12:49:35;24.95;;;4.78;;
43088;SDS011;28709;52.030;5.652;2023-11-19T12:52:00;24.08;;;4.90;;
43088;SDS011;28709;52.030;5.652;2023-11-19T12:54:33;29.50;;;5.22;;
43088;SDS011;28709;52.030;5.652;2023-11-19T12:57:02;32.33;;;5.95;;
43088;SDS011;28709;52.030;5.652;2023-11-19T12:59:29;26.83;;;4.78;;
43088;SDS011;28709;52.030;5.652;2023-11-19T13:01:58;28.40;;;4.57;;
43088;SDS011;28709;52.030;5.652;2023-11-19T13:04:28;32.53;;;4.75;;
43088;SDS011;28709;52.030;5.652;2023-11-19T13:06:58;29.98;;;6.60;;
43088;SDS011;28709;52.030;5.652;2023-11-19T13:09:24;30.92;;;5.57;;
43088;SDS011;28709;52.030;5.652;2023-11-19T13:11:52;22.33;;;4.45;;
43088;SDS011;28709;52.030;5.652;2023-11-19T13:14:21;25.95;;;5.28;;
43088;SDS011;28709;52.030;5.652;2023-11-19T13:16:48;24.30;;;6.47;;
43088;SDS011;28709;52.030;5.652;2023-11-19T13:19:14;30.92;;;6.82;;
43088;SDS011;28709;52.030;5.652;2023-11-19T13:21:44;26.20;;;5.03;;
43088;SDS011;28709;52.030;5.652;2023-11-19T13:24:12;29.80;;;6.43;;
43088;SDS011;28709;52.030;5.652;2023-11-19T13:26:38;32.85;;;5.82;;
43088;SDS011;28709;52.030;5.652;2023-11-19T13:29:04;30.42;;;5.35;;
43088;SDS011;28709;52.030;5.652;2023-11-19T13:31:30;33.83;;;6.00;;
43088;SDS011;28709;52.030;5.652;2023-11-19T13:33:55;33.40;;;6.57;;
43088;SDS011;28709;52.030;5.652;2023-11-19T13:36:23;28.88;;;5.60;;
43088;SDS011;28709;52.030;5.652;2023-11-19T13:38:49;27.77;;;5.68;;
43088;SDS011;28709;52.030;5.652;2023-11-19T13:41:15;26.20;;;5.25;;
43088;SDS011;28709;52.030;5.652;2023-11-19T13:43:40;23.95;;;4.88;;
43088;SDS011;28709;52.030;5.652;2023-11-19T13:46:06;25.17;;;5.10;;
43088;SDS011;28709;52.030;5.652;2023-11-19T13:48:34;31.60;;;5.03;;
43088;SDS011;28709;52.030;5.652;2023-11-19T13:51:00;35.22;;;5.70;;
43088;SDS011;28709;52.030;5.652;2023-11-19T13:53:26;29.83;;;5.00;;
43088;SDS011;28709;52.030;5.652;2023-11-19T13:55:51;35.33;;;5.72;;
43088;SDS011;28709;52.030;5.652;2023-11-19T13:58:18;23.75;;;3.70;;
43088;SDS011;28709;52.030;5.652;2023-11-19T14:00:43;25.25;;;4.60;;
43088;SDS011;28709;52.030;5.652;2023-11-19T14:03:09;29.40;;;5.05;;
43088;SDS011;28709;52.030;5.652;2023-11-19T14:05:38;25.45;;;4.97;;
43088;SDS011;28709;52.030;5.652;2023-11-19T14:08:07;37.92;;;5.35;;
43088;SDS011;28709;52.030;5.652;2023-11-19T14:10:39;28.60;;;3.70;;
43088;SDS011;28709;52.030;5.652;2023-11-19T14:13:07;19.10;;;4.25;;
43088;SDS011;28709;52.030;5.652;2023-11-19T14:15:33;36.72;;;4.65;;
43088;SDS011;28709;52.030;5.652;2023-11-19T14:18:00;28.73;;;5.00;;
43088;SDS011;28709;52.030;5.652;2023-11-19T14:20:25;21.77;;;3.95;;
43088;SDS011;28709;52.030;5.652;2023-11-19T14:22:51;21.92;;;3.88;;
43088;SDS011;28709;52.030;5.652;2023-11-19T14:25:17;35.03;;;6.43;;
43088;SDS011;28709;52.030;5.652;2023-11-19T14:27:44;24.48;;;4.60;;
43088;SDS011;28709;52.030;5.652;2023-11-19T14:30:13;27.42;;;4.88;;
43088;SDS011;28709;52.030;5.652;2023-11-19T14:32:40;31.15;;;5.35;;
43088;SDS011;28709;52.030;5.652;2023-11-19T14:35:11;27.48;;;5.32;;
43088;SDS011;28709;52.030;5.652;2023-11-19T14:37:36;28.08;;;4.88;;
43088;SDS011;28709;52.030;5.652;2023-11-19T14:40:02;27.63;;;4.70;;
43088;SDS011;28709;52.030;5.652;2023-11-19T14:42:30;33.15;;;6.10;;
43088;SDS011;28709;52.030;5.652;2023-11-19T14:44:56;26.55;;;4.13;;
43088;SDS011;28709;52.030;5.652;2023-11-19T14:47:22;28.27;;;4.40;;
43088;SDS011;28709;52.030;5.652;2023-11-19T14:49:48;36.22;;;4.82;;
43088;SDS011;28709;52.030;5.652;2023-11-19T14:52:13;30.88;;;5.28;;
43088;SDS011;28709;52.030;5.652;2023-11-19T14:54:39;31.80;;;5.85;;
43088;SDS011;28709;52.030;5.652;2023-11-19T14:57:05;30.65;;;5.70;;
43088;SDS011;28709;52.030;5.652;2023-11-19T14:59:33;31.65;;;5.47;;
43088;SDS011;28709;52.030;5.652;2023-11-19T15:01:59;29.60;;;5.38;;
43088;SDS011;28709;52.030;5.652;2023-11-19T15:04:25;33.85;;;5.47;;